Time;durP1;ratioP1;P1;durP2;ratioP2;P2;SDS_P1;SDS_P2;PMS_P1;PMS_P2;Temp;Humidity;BMP_temperature;BMP_pressure;BME280_temperature;BME280_humidity;BME280_pressure;Samples;Min_cycle;Max_cycle;Signal;HPM_P1;HPM_P2
2024/04/04 00:00:18;;;;;;;3.30;1.23;;;;;;;;;;10380881;28;20070;-65
2024/04/04 00:05:17;;;;;;;1.00;1.00;;;;;;;;;;10380122;28;20068;-65
2024/04/04 00:10:15;;;;;;;2.88;1.20;;;;;;;;;;10374134;28;20059;-64
2024/04/04 00:15:12;;;;;;;1.52;1.02;;;;;;;;;;10373117;28;20091;-65
2024/04/04 00:20:14;;;;;;;1.80;0.90;;;;;;;;;;10376866;28;20098;-65
2024/04/04 00:25:14;;;;;;;1.52;1.10;;;;;;;;;;10374277;28;20109;-65
2024/04/04 00:30:11;;;;;;;0.93;0.93;;;;;;;;;;10377118;28;20083;-65
2024/04/04 00:35:09;;;;;;;1.55;1.15;;;;;;;;;;10373477;28;20074;-65
2024/04/04 00:40:07;;;;;;;1.20;0.75;;;;;;;;;;10374545;28;20098;-65
2024/04/04 00:45:06;;;;;;;1.00;1.00;;;;;;;;;;10375920;28;20059;-66
2024/04/04 00:50:04;;;;;;;1.20;0.90;;;;;;;;;;10373404;28;20094;-65
2024/04/04 00:55:01;;;;;;;1.90;1.00;;;;;;;;;;10388837;27;20091;-66
2024/04/04 00:59:59;;;;;;;2.97;1.15;;;;;;;;;;10371656;28;20531;-65
2024/04/04 01:04:58;;;;;;;1.52;1.00;;;;;;;;;;10367131;28;20068;-65
2024/04/04 01:09:55;;;;;;;2.47;0.85;;;;;;;;;;10371454;28;20060;-66
2024/04/04 01:14:53;;;;;;;1.00;0.98;;;;;;;;;;10369982;28;20083;-65
2024/04/04 01:19:50;;;;;;;0.90;0.90;;;;;;;;;;10378462;28;20501;-65
2024/04/04 01:24:49;;;;;;;1.15;0.80;;;;;;;;;;10372040;28;20067;-65
2024/04/04 01:29:46;;;;;;;2.22;1.08;;;;;;;;;;10373378;28;20056;-65
2024/04/04 01:34:44;;;;;;;0.77;0.77;;;;;;;;;;10372808;28;20093;-64
2024/04/04 01:39:41;;;;;;;3.00;1.20;;;;;;;;;;10373315;28;20067;-64
2024/04/04 01:44:40;;;;;;;0.93;0.93;;;;;;;;;;10368777;28;20655;-66
2024/04/04 01:49:38;;;;;;;1.73;1.20;;;;;;;;;;10369972;28;20059;-65
2024/04/04 01:54:35;;;;;;;1.70;1.10;;;;;;;;;;10370636;28;20075;-65
2024/04/04 01:59:33;;;;;;;1.10;1.02;;;;;;;;;;10365923;28;20076;-65
2024/04/04 02:04:32;;;;;;;1.88;0.90;;;;;;;;;;10366056;28;20062;-66
2024/04/04 02:09:29;;;;;;;1.02;0.95;;;;;;;;;;10369986;28;20521;-65
2024/04/04 02:14:26;;;;;;;0.98;0.98;;;;;;;;;;10368879;28;20075;-66
2024/04/04 02:19:24;;;;;;;1.02;0.90;;;;;;;;;;10351963;28;20068;-64
2024/04/04 02:24:23;;;;;;;1.40;1.27;;;;;;;;;;10371863;28;20063;-66
2024/04/04 02:29:20;;;;;;;2.67;1.00;;;;;;;;;;10370110;28;20113;-64
2024/04/04 02:34:18;;;;;;;1.67;1.00;;;;;;;;;;10370956;28;20062;-65
2024/04/04 02:39:15;;;;;;;1.25;1.13;;;;;;;;;;10377175;28;20102;-66
2024/04/04 02:44:14;;;;;;;2.75;2.55;;;;;;;;;;10365559;28;20063;-66
2024/04/04 02:49:11;;;;;;;6.07;3.67;;;;;;;;;;10368487;28;20078;-66
2024/04/04 02:54:09;;;;;;;1.40;1.30;;;;;;;;;;10367794;28;20083;-65
2024/04/04 02:59:06;;;;;;;1.80;1.35;;;;;;;;;;10369378;28;20485;-65
2024/04/04 03:04:05;;;;;;;3.55;1.85;;;;;;;;;;10366290;28;20536;-65
2024/04/04 03:09:07;;;;;;;5.70;1.40;;;;;;;;;;10370913;28;20516;-64
2024/04/04 03:14:04;;;;;;;3.63;1.80;;;;;;;;;;10367313;28;20473;-64
2024/04/04 03:19:02;;;;;;;6.78;3.13;;;;;;;;;;10371132;28;20079;-65
2024/04/04 03:24:01;;;;;;;4.18;2.58;;;;;;;;;;10369984;28;20457;-65
2024/04/04 03:28:58;;;;;;;2.42;1.73;;;;;;;;;;10368046;28;20078;-65
2024/04/04 03:33:56;;;;;;;4.38;2.45;;;;;;;;;;10372687;28;20063;-64
2024/04/04 03:38:53;;;;;;;3.97;1.92;;;;;;;;;;10368793;28;20064;-64
2024/04/04 03:43:53;;;;;;;3.05;2.20;;;;;;;;;;10376678;28;20075;-64
2024/04/04 03:48:50;;;;;;;4.97;2.17;;;;;;;;;;10371612;28;20109;-65
2024/04/04 03:53:48;;;;;;;5.85;2.40;;;;;;;;;;10375513;28;20063;-65
2024/04/04 03:58:45;;;;;;;5.90;2.63;;;;;;;;;;10370892;28;20088;-65
2024/04/04 04:03:44;;;;;;;6.85;2.80;;;;;;;;;;10377203;28;20528;-66
2024/04/04 04:08:41;;;;;;;6.28;2.90;;;;;;;;;;10371290;28;20094;-65
2024/04/04 04:13:39;;;;;;;6.00;2.85;;;;;;;;;;10371901;28;20082;-66
2024/04/04 04:18:36;;;;;;;3.40;2.80;;;;;;;;;;10375456;28;20090;-65
2024/04/04 04:23:35;;;;;;;6.25;3.42;;;;;;;;;;10374346;28;20063;-65
2024/04/04 04:28:32;;;;;;;9.57;3.30;;;;;;;;;;10376485;28;20083;-65
2024/04/04 04:33:30;;;;;;;7.47;4.60;;;;;;;;;;10378906;28;20080;-65
2024/04/04 04:38:28;;;;;;;9.02;3.72;;;;;;;;;;10375564;28;20071;-65
2024/04/04 04:43:27;;;;;;;2.30;1.23;;;;;;;;;;10373521;28;20074;-65
2024/04/04 04:48:24;;;;;;;11.25;2.05;;;;;;;;;;10368875;28;20083;-65
2024/04/04 04:53:22;;;;;;;12.23;4.78;;;;;;;;;;10373741;28;20071;-65
2024/04/04 04:58:20;;;;;;;19.35;7.95;;;;;;;;;;10370996;28;20084;-65
2024/04/04 05:03:19;;;;;;;15.02;7.40;;;;;;;;;;10373097;28;20512;-65
2024/04/04 05:08:16;;;;;;;26.20;7.65;;;;;;;;;;10370870;28;20491;-64
2024/04/04 05:13:14;;;;;;;27.27;7.07;;;;;;;;;;10373499;28;20076;-65
2024/04/04 05:18:11;;;;;;;17.27;11.80;;;;;;;;;;10370621;28;20074;-65
2024/04/04 05:23:10;;;;;;;17.40;8.82;;;;;;;;;;10374343;28;20067;-65
2024/04/04 05:28:08;;;;;;;13.27;7.15;;;;;;;;;;10371788;28;20090;-65
2024/04/04 05:33:06;;;;;;;13.50;7.18;;;;;;;;;;10376073;28;20071;-63
2024/04/04 05:38:03;;;;;;;18.90;8.48;;;;;;;;;;10366018;28;20517;-64
2024/04/04 05:43:02;;;;;;;22.45;8.27;;;;;;;;;;10372825;28;20055;-65
2024/04/04 05:48:00;;;;;;;18.90;11.65;;;;;;;;;;10371256;28;20072;-64
2024/04/04 05:52:57;;;;;;;20.83;11.43;;;;;;;;;;10361646;28;20070;-64
2024/04/04 05:57:54;;;;;;;15.52;7.20;;;;;;;;;;10374781;28;20540;-64
2024/04/04 06:02:54;;;;;;;17.00;7.15;;;;;;;;;;10368519;28;20170;-65
2024/04/04 06:07:52;;;;;;;20.30;9.35;;;;;;;;;;10366493;28;20063;-65
2024/04/04 06:12:49;;;;;;;22.45;8.85;;;;;;;;;;10367163;28;20083;-65
2024/04/04 06:17:47;;;;;;;19.80;8.73;;;;;;;;;;10381005;28;20071;-66
2024/04/04 06:22:46;;;;;;;15.30;7.70;;;;;;;;;;10378051;28;20056;-65
2024/04/04 06:27:44;;;;;;;22.58;10.20;;;;;;;;;;10365230;28;20173;-64
2024/04/04 06:32:41;;;;;;;17.77;11.10;;;;;;;;;;10379938;28;20588;-66
2024/04/04 06:37:39;;;;;;;16.83;8.60;;;;;;;;;;10361907;28;20097;-65
2024/04/04 06:42:37;;;;;;;17.58;7.10;;;;;;;;;;10378025;28;20066;-65
2024/04/04 06:47:41;;;;;;;13.32;6.95;;;;;;;;;;10355215;28;20082;-65
2024/04/04 06:52:38;;;;;;;11.70;7.13;;;;;;;;;;10366946;28;20076;-65
2024/04/04 06:57:37;;;;;;;25.75;7.90;;;;;;;;;;10364496;28;20477;-65
2024/04/04 07:02:37;;;;;;;9.68;5.82;;;;;;;;;;10365601;28;20060;-65
2024/04/04 07:07:34;;;;;;;16.75;6.97;;;;;;;;;;10362827;28;20060;-67
2024/04/04 07:12:32;;;;;;;15.80;5.97;;;;;;;;;;10363767;28;20079;-65
2024/04/04 07:17:31;;;;;;;7.47;4.18;;;;;;;;;;10366195;28;20071;-65
2024/04/04 07:22:29;;;;;;;12.55;4.78;;;;;;;;;;10371682;28;20086;-65
2024/04/04 07:27:26;;;;;;;9.75;5.25;;;;;;;;;;10373358;28;20071;-65
2024/04/04 07:32:24;;;;;;;18.05;4.95;;;;;;;;;;10381769;28;20060;-65
2024/04/04 07:37:22;;;;;;;10.60;4.43;;;;;;;;;;10375104;28;20515;-65
2024/04/04 07:42:20;;;;;;;9.00;3.67;;;;;;;;;;10370677;28;20075;-65
2024/04/04 07:47:18;;;;;;;7.32;3.50;;;;;;;;;;10374090;28;20076;-65
2024/04/04 07:52:16;;;;;;;9.15;3.72;;;;;;;;;;10374444;28;20075;-65
2024/04/04 07:57:15;;;;;;;4.97;2.72;;;;;;;;;;10370558;28;20086;-65
2024/04/04 08:02:13;;;;;;;8.23;3.33;;;;;;;;;;10375146;28;20535;-65
2024/04/04 08:07:10;;;;;;;15.27;6.68;;;;;;;;;;10380771;28;20125;-65
2024/04/04 08:12:09;;;;;;;14.90;5.93;;;;;;;;;;10376536;28;20075;-65
2024/04/04 08:17:08;;;;;;;14.88;5.75;;;;;;;;;;10375958;28;20064;-64
2024/04/04 08:22:07;;;;;;;9.23;5.72;;;;;;;;;;10374641;28;20060;-65
2024/04/04 08:27:05;;;;;;;15.27;4.82;;;;;;;;;;10376113;28;20079;-65
2024/04/04 08:32:03;;;;;;;7.80;3.75;;;;;;;;;;10373784;28;20064;-66
2024/04/04 08:37:02;;;;;;;8.30;3.42;;;;;;;;;;10359061;28;20624;-66
2024/04/04 08:41:59;;;;;;;9.18;3.03;;;;;;;;;;10370372;28;20133;-65
2024/04/04 08:46:57;;;;;;;7.15;2.00;;;;;;;;;;10372772;28;20067;-66
2024/04/04 08:51:55;;;;;;;4.63;1.95;;;;;;;;;;10375318;28;20138;-66
2024/04/04 08:56:55;;;;;;;4.07;1.38;;;;;;;;;;10374103;28;20060;-66
2024/04/04 09:01:52;;;;;;;1.65;1.40;;;;;;;;;;10370181;28;20086;-66
2024/04/04 09:06:50;;;;;;;1.60;1.23;;;;;;;;;;10370228;28;20064;-65
2024/04/04 09:11:48;;;;;;;2.55;1.70;;;;;;;;;;10370008;28;20074;-65
2024/04/04 09:16:47;;;;;;;3.42;1.50;;;;;;;;;;10370687;28;20536;-65
2024/04/04 09:21:45;;;;;;;7.57;1.80;;;;;;;;;;10380991;27;20534;-65
2024/04/04 09:26:43;;;;;;;2.90;1.35;;;;;;;;;;10367940;28;20563;-65
2024/04/04 09:31:41;;;;;;;3.85;1.35;;;;;;;;;;10370023;28;20063;-64
2024/04/04 09:36:40;;;;;;;1.42;1.30;;;;;;;;;;10373588;28;20063;-64
2024/04/04 09:41:38;;;;;;;3.30;1.67;;;;;;;;;;10378584;28;20067;-64
2024/04/04 09:46:39;;;;;;;5.18;2.00;;;;;;;;;;10367987;28;20090;-64
2024/04/04 09:51:39;;;;;;;4.63;2.05;;;;;;;;;;10368366;28;20074;-65
2024/04/04 09:56:40;;;;;;;5.85;2.13;;;;;;;;;;10369856;28;20067;-65
2024/04/04 10:01:38;;;;;;;6.25;1.80;;;;;;;;;;10352440;28;20071;-64
2024/04/04 10:06:36;;;;;;;11.85;1.90;;;;;;;;;;10376272;28;20062;-65
2024/04/04 10:11:34;;;;;;;5.32;2.10;;;;;;;;;;10373177;28;20063;-65
2024/04/04 10:16:38;;;;;;;4.30;1.60;;;;;;;;;;10386621;28;20079;-64
2024/04/04 10:21:35;;;;;;;5.37;1.50;;;;;;;;;;10371120;28;20082;-64
2024/04/04 10:26:34;;;;;;;3.13;2.10;;;;;;;;;;10373808;28;20309;-65
2024/04/04 10:31:32;;;;;;;3.35;2.13;;;;;;;;;;10373392;28;20083;-64
2024/04/04 10:36:41;;;;;;;7.28;2.70;;;;;;;;;;10372229;28;20071;-65
2024/04/04 10:41:39;;;;;;;5.38;2.97;;;;;;;;;;10363924;28;20074;-65
2024/04/04 10:46:40;;;;;;;6.88;1.90;;;;;;;;;;10372841;28;20246;-64
2024/04/04 10:51:39;;;;;;;3.88;1.55;;;;;;;;;;10367466;28;20093;-65
2024/04/04 10:56:38;;;;;;;2.13;1.35;;;;;;;;;;10369991;28;20076;-65
2024/04/04 11:01:36;;;;;;;2.15;1.42;;;;;;;;;;10367905;28;20063;-64
2024/04/04 11:06:34;;;;;;;2.40;1.08;;;;;;;;;;10366506;28;20122;-65
2024/04/04 11:11:32;;;;;;;2.00;1.15;;;;;;;;;;10365376;28;20110;-65
2024/04/04 11:16:31;;;;;;;2.63;1.73;;;;;;;;;;10370885;28;20082;-65
2024/04/04 11:21:28;;;;;;;4.38;2.20;;;;;;;;;;10364540;28;20086;-66
2024/04/04 11:26:25;;;;;;;4.10;1.20;;;;;;;;;;10376761;28;20098;-65
2024/04/04 11:31:23;;;;;;;4.10;1.75;;;;;;;;;;10371842;28;20067;-65
2024/04/04 11:36:22;;;;;;;2.25;1.35;;;;;;;;;;10363525;28;20063;-66
2024/04/04 11:41:20;;;;;;;7.43;1.60;;;;;;;;;;10364144;28;20098;-66
2024/04/04 11:46:18;;;;;;;5.20;1.67;;;;;;;;;;10366026;28;20075;-65
2024/04/04 11:51:15;;;;;;;1.73;1.63;;;;;;;;;;10374618;28;20082;-65
2024/04/04 11:56:16;;;;;;;4.00;1.70;;;;;;;;;;10371125;28;20078;-66
2024/04/04 12:01:14;;;;;;;2.72;1.60;;;;;;;;;;10362421;28;20083;-64
2024/04/04 12:06:11;;;;;;;2.33;1.45;;;;;;;;;;10357845;28;20107;-64
2024/04/04 12:11:09;;;;;;;8.77;1.90;;;;;;;;;;10372949;28;20059;-62
2024/04/04 12:16:08;;;;;;;3.38;1.92;;;;;;;;;;10368917;28;20086;-64
2024/04/04 12:21:05;;;;;;;5.65;1.90;;;;;;;;;;10366485;28;20064;-65
2024/04/04 12:26:03;;;;;;;4.40;1.63;;;;;;;;;;10363210;28;20059;-65
2024/04/04 12:31:01;;;;;;;6.35;1.73;;;;;;;;;;10363640;28;20070;-65
2024/04/04 12:36:00;;;;;;;4.60;2.58;;;;;;;;;;10369835;28;20072;-65
2024/04/04 12:40:57;;;;;;;4.68;1.70;;;;;;;;;;10368951;28;20071;-65
2024/04/04 12:46:01;;;;;;;3.30;1.52;;;;;;;;;;10368339;28;20071;-65
2024/04/04 12:51:00;;;;;;;4.65;1.80;;;;;;;;;;10370673;28;20059;-65
2024/04/04 12:55:58;;;;;;;6.80;1.65;;;;;;;;;;10371820;28;20071;-65
2024/04/04 13:00:59;;;;;;;3.85;1.60;;;;;;;;;;10372394;28;20086;-65
2024/04/04 13:05:56;;;;;;;1.98;1.52;;;;;;;;;;10368940;28;20078;-64
2024/04/04 13:10:55;;;;;;;3.55;1.40;;;;;;;;;;10370119;28;20067;-65
2024/04/04 13:15:53;;;;;;;4.25;1.58;;;;;;;;;;10369980;28;20082;-64
2024/04/04 13:20:50;;;;;;;6.10;1.52;;;;;;;;;;10370323;28;20082;-64
2024/04/04 13:25:47;;;;;;;4.15;1.52;;;;;;;;;;10370126;28;20119;-64
2024/04/04 13:30:46;;;;;;;4.13;1.17;;;;;;;;;;10371282;28;20067;-64
2024/04/04 13:35:44;;;;;;;2.15;1.05;;;;;;;;;;10369030;28;20075;-64
2024/04/04 13:40:41;;;;;;;1.25;0.95;;;;;;;;;;10374094;28;20075;-64
2024/04/04 13:45:39;;;;;;;3.83;1.10;;;;;;;;;;10360385;28;20067;-64
2024/04/04 13:50:38;;;;;;;2.05;1.25;;;;;;;;;;10376944;28;20064;-65
2024/04/04 13:55:35;;;;;;;2.85;1.20;;;;;;;;;;10371000;28;20063;-66
2024/04/04 14:00:32;;;;;;;3.80;1.70;;;;;;;;;;10372240;28;20082;-65
2024/04/04 14:05:30;;;;;;;5.57;1.45;;;;;;;;;;10375237;28;20078;-65
2024/04/04 14:10:29;;;;;;;2.47;1.80;;;;;;;;;;10371501;28;20532;-66
2024/04/04 14:15:26;;;;;;;2.90;2.10;;;;;;;;;;10367999;28;20103;-65
2024/04/04 14:20:24;;;;;;;4.00;2.58;;;;;;;;;;10370530;28;20071;-66
2024/04/04 14:25:21;;;;;;;7.35;3.92;;;;;;;;;;10367027;28;20093;-65
2024/04/04 14:30:20;;;;;;;5.32;2.55;;;;;;;;;;10368708;28;20071;-66
2024/04/04 14:35:17;;;;;;;6.25;4.32;;;;;;;;;;10384787;27;20255;-66
2024/04/04 14:40:15;;;;;;;4.38;2.40;;;;;;;;;;10366231;28;20071;-64
2024/04/04 14:45:12;;;;;;;3.70;2.42;;;;;;;;;;10369817;28;20083;-64
2024/04/04 14:50:11;;;;;;;4.95;3.10;;;;;;;;;;10367345;28;20141;-63
2024/04/04 14:55:11;;;;;;;4.07;3.53;;;;;;;;;;10374539;28;20076;-64
2024/04/04 15:00:09;;;;;;;5.10;1.95;;;;;;;;;;10368865;28;20067;-64
2024/04/04 15:05:07;;;;;;;2.85;1.75;;;;;;;;;;10366224;28;20080;-64
2024/04/04 15:10:06;;;;;;;4.47;3.10;;;;;;;;;;10376607;28;20071;-63
2024/04/04 15:15:04;;;;;;;5.22;2.00;;;;;;;;;;10364201;28;20080;-64
2024/04/04 15:20:06;;;;;;;5.00;2.25;;;;;;;;;;10360843;28;20075;-65
2024/04/04 15:25:03;;;;;;;4.07;2.05;;;;;;;;;;10367390;28;20071;-64
2024/04/04 15:30:02;;;;;;;4.68;3.03;;;;;;;;;;10366589;28;20098;-65
2024/04/04 15:35:00;;;;;;;8.35;2.65;;;;;;;;;;10368915;28;20070;-65
2024/04/04 15:39:57;;;;;;;9.10;3.33;;;;;;;;;;10374934;28;20055;-65
2024/04/04 15:44:55;;;;;;;5.07;3.92;;;;;;;;;;10375241;28;20083;-65
2024/04/04 15:49:54;;;;;;;6.05;3.83;;;;;;;;;;10373274;28;20075;-65
2024/04/04 15:54:51;;;;;;;5.95;4.10;;;;;;;;;;10359416;28;20071;-65
2024/04/04 15:59:49;;;;;;;7.60;4.45;;;;;;;;;;10373442;28;20527;-65
2024/04/04 16:04:48;;;;;;;9.75;4.38;;;;;;;;;;10374886;28;20094;-65
2024/04/04 16:09:47;;;;;;;4.72;3.72;;;;;;;;;;10376635;28;20119;-65
2024/04/04 16:14:45;;;;;;;9.07;4.57;;;;;;;;;;10371828;28;20075;-66
2024/04/04 16:19:42;;;;;;;7.75;4.85;;;;;;;;;;10373616;28;20069;-66
2024/04/04 16:24:40;;;;;;;6.05;3.70;;;;;;;;;;10383761;28;20078;-66
2024/04/04 16:29:40;;;;;;;4.88;2.72;;;;;;;;;;10384693;28;20069;-66
2024/04/04 16:34:37;;;;;;;8.48;4.05;;;;;;;;;;10374689;28;20063;-65
2024/04/04 16:39:34;;;;;;;7.28;4.05;;;;;;;;;;10374280;28;20063;-65
2024/04/04 16:44:32;;;;;;;14.48;9.75;;;;;;;;;;10372079;28;20086;-66
2024/04/04 16:49:31;;;;;;;48.70;30.02;;;;;;;;;;10369515;28;20586;-67
2024/04/04 16:54:30;;;;;;;19.73;10.95;;;;;;;;;;10372035;28;20075;-65
2024/04/04 16:59:27;;;;;;;7.65;4.40;;;;;;;;;;10370159;28;20068;-65
2024/04/04 17:04:24;;;;;;;10.25;3.63;;;;;;;;;;10370882;28;20071;-66
2024/04/04 17:09:23;;;;;;;6.63;2.53;;;;;;;;;;10369564;28;20075;-66
2024/04/04 17:14:21;;;;;;;3.50;2.42;;;;;;;;;;10369396;28;20101;-65
2024/04/04 17:19:18;;;;;;;14.45;2.75;;;;;;;;;;10369982;28;20089;-65
2024/04/04 17:24:16;;;;;;;5.68;2.05;;;;;;;;;;10368342;28;20080;-65
2024/04/04 17:29:14;;;;;;;3.92;2.38;;;;;;;;;;10369480;28;20067;-65
2024/04/04 17:34:14;;;;;;;5.35;2.05;;;;;;;;;;10368763;28;20076;-65
2024/04/04 17:39:12;;;;;;;5.00;2.00;;;;;;;;;;10377765;28;20070;-66
2024/04/04 17:44:11;;;;;;;2.78;1.92;;;;;;;;;;10377812;28;20461;-67
2024/04/04 17:49:10;;;;;;;2.95;2.03;;;;;;;;;;10369701;28;20079;-64
2024/04/04 17:54:07;;;;;;;6.47;2.45;;;;;;;;;;10368454;28;20496;-66
2024/04/04 17:59:05;;;;;;;5.80;2.47;;;;;;;;;;10368013;28;20055;-65
2024/04/04 18:04:02;;;;;;;7.28;3.45;;;;;;;;;;10367255;28;20067;-66
2024/04/04 18:09:01;;;;;;;3.50;2.90;;;;;;;;;;10367096;28;20339;-65
2024/04/04 18:13:58;;;;;;;3.63;2.30;;;;;;;;;;10366839;28;20106;-66
2024/04/04 18:18:56;;;;;;;3.13;2.17;;;;;;;;;;10369317;28;20080;-65
2024/04/04 18:23:53;;;;;;;4.90;2.00;;;;;;;;;;10366815;28;20491;-65
2024/04/04 18:28:52;;;;;;;2.78;2.30;;;;;;;;;;10366595;28;20571;-66
2024/04/04 18:33:50;;;;;;;6.57;3.08;;;;;;;;;;10366768;28;20516;-64
2024/04/04 18:38:48;;;;;;;5.03;2.72;;;;;;;;;;10367897;28;20075;-65
2024/04/04 18:43:46;;;;;;;5.57;2.72;;;;;;;;;;10367851;28;20074;-65
2024/04/04 18:48:46;;;;;;;5.13;2.40;;;;;;;;;;10366526;28;20071;-65
2024/04/04 18:53:43;;;;;;;3.58;2.50;;;;;;;;;;10365854;28;20063;-66
2024/04/04 18:58:41;;;;;;;3.80;3.05;;;;;;;;;;10374752;28;20072;-64
2024/04/04 19:03:39;;;;;;;4.00;3.40;;;;;;;;;;10365839;28;20066;-65
2024/04/04 19:08:38;;;;;;;6.00;3.88;;;;;;;;;;10367347;28;20033;-66
2024/04/04 19:13:35;;;;;;;5.93;2.78;;;;;;;;;;10383121;28;20080;-65
2024/04/04 19:18:33;;;;;;;3.03;2.28;;;;;;;;;;10374684;28;20089;-65
2024/04/04 19:23:32;;;;;;;3.80;2.50;;;;;;;;;;10374753;28;20079;-65
2024/04/04 19:28:32;;;;;;;2.95;1.98;;;;;;;;;;10375749;28;20067;-65
2024/04/04 19:33:29;;;;;;;4.07;2.15;;;;;;;;;;10373009;28;20491;-65
2024/04/04 19:38:27;;;;;;;5.53;2.05;;;;;;;;;;10373602;28;20094;-65
2024/04/04 19:43:27;;;;;;;9.57;2.15;;;;;;;;;;10373348;28;20079;-65
2024/04/04 19:48:27;;;;;;;2.92;1.63;;;;;;;;;;10372942;28;20079;-65
2024/04/04 19:53:24;;;;;;;3.50;2.20;;;;;;;;;;10373800;28;20071;-65
2024/04/04 19:58:22;;;;;;;7.85;1.92;;;;;;;;;;10372995;28;20071;-65
2024/04/04 20:03:19;;;;;;;2.40;1.60;;;;;;;;;;10372937;28;20064;-66
2024/04/04 20:08:18;;;;;;;2.53;1.77;;;;;;;;;;10372750;28;20072;-65
2024/04/04 20:13:16;;;;;;;3.72;2.00;;;;;;;;;;10375569;28;20067;-65
2024/04/04 20:18:13;;;;;;;3.20;1.83;;;;;;;;;;10374504;28;20076;-65
2024/04/04 20:23:11;;;;;;;4.40;2.28;;;;;;;;;;10370492;28;20083;-67
2024/04/04 20:28:10;;;;;;;2.83;1.88;;;;;;;;;;10372486;28;20514;-65
2024/04/04 20:33:07;;;;;;;2.38;1.95;;;;;;;;;;10371024;28;20066;-65
2024/04/04 20:38:05;;;;;;;1.83;1.65;;;;;;;;;;10380494;28;20067;-65
2024/04/04 20:43:02;;;;;;;6.22;2.42;;;;;;;;;;10378568;28;20479;-65
2024/04/04 20:48:02;;;;;;;8.43;2.30;;;;;;;;;;10369016;28;20071;-65
2024/04/04 20:53:00;;;;;;;8.57;2.20;;;;;;;;;;10369176;28;20075;-65
2024/04/04 20:57:58;;;;;;;8.85;2.42;;;;;;;;;;10365612;28;20070;-65
2024/04/04 21:02:56;;;;;;;3.80;1.98;;;;;;;;;;10367172;28;20071;-66
2024/04/04 21:07:55;;;;;;;5.15;1.85;;;;;;;;;;10368040;28;20064;-65
2024/04/04 21:12:52;;;;;;;3.08;1.88;;;;;;;;;;10369139;28;20094;-66
2024/04/04 21:17:49;;;;;;;2.58;1.83;;;;;;;;;;10372379;28;20064;-65
2024/04/04 21:22:47;;;;;;;4.07;2.00;;;;;;;;;;10369323;28;20067;-65
2024/04/04 21:27:46;;;;;;;5.88;2.00;;;;;;;;;;10368634;28;20071;-65
2024/04/04 21:32:43;;;;;;;4.70;2.50;;;;;;;;;;10371776;28;20082;-66
2024/04/04 21:37:41;;;;;;;5.63;2.20;;;;;;;;;;10370009;28;20192;-67
2024/04/04 21:42:38;;;;;;;5.05;1.60;;;;;;;;;;10369476;28;20102;-65
2024/04/04 21:47:37;;;;;;;5.22;2.10;;;;;;;;;;10370066;28;20072;-65
2024/04/04 21:52:34;;;;;;;4.57;2.17;;;;;;;;;;10367247;28;20075;-65
2024/04/04 21:57:32;;;;;;;3.63;1.92;;;;;;;;;;10369183;28;20074;-65
2024/04/04 22:02:30;;;;;;;2.83;2.20;;;;;;;;;;10368907;28;20094;-66
2024/04/04 22:07:29;;;;;;;4.60;1.83;;;;;;;;;;10367666;28;20083;-67
2024/04/04 22:12:26;;;;;;;7.20;2.30;;;;;;;;;;10368110;28;20097;-65
2024/04/04 22:17:24;;;;;;;2.88;1.92;;;;;;;;;;10367111;28;20087;-66
2024/04/04 22:22:21;;;;;;;5.15;2.90;;;;;;;;;;10367246;28;20063;-65
2024/04/04 22:27:20;;;;;;;2.20;1.60;;;;;;;;;;10367419;28;20162;-66
2024/04/04 22:32:18;;;;;;;2.47;2.03;;;;;;;;;;10369630;28;20078;-65
2024/04/04 22:37:15;;;;;;;4.10;2.28;;;;;;;;;;10366983;28;20550;-67
2024/04/04 22:42:13;;;;;;;4.63;2.15;;;;;;;;;;10366538;28;20078;-66
2024/04/04 22:47:12;;;;;;;3.13;2.25;;;;;;;;;;10367593;28;20091;-65
2024/04/04 22:52:09;;;;;;;5.97;2.33;;;;;;;;;;10370665;28;20501;-66
2024/04/04 22:57:07;;;;;;;3.92;2.60;;;;;;;;;;10367050;28;20075;-65
2024/04/04 23:02:04;;;;;;;2.53;1.83;;;;;;;;;;10377439;28;20082;-65
2024/04/04 23:07:03;;;;;;;7.60;2.80;;;;;;;;;;10366583;28;20079;-65
2024/04/04 23:12:04;;;;;;;5.40;3.20;;;;;;;;;;10366276;28;20490;-66
2024/04/04 23:17:01;;;;;;;6.55;2.22;;;;;;;;;;10366817;28;20078;-66
2024/04/04 23:21:59;;;;;;;5.97;2.60;;;;;;;;;;10367797;28;20083;-65
2024/04/04 23:26:57;;;;;;;3.47;2.15;;;;;;;;;;10364576;28;20078;-67
2024/04/04 23:31:55;;;;;;;3.08;2.30;;;;;;;;;;10367487;28;20064;-66
2024/04/04 23:36:52;;;;;;;3.97;2.58;;;;;;;;;;10366431;28;20118;-65
2024/04/04 23:41:51;;;;;;;6.25;3.42;;;;;;;;;;10366512;28;20097;-65
2024/04/04 23:46:49;;;;;;;5.57;2.70;;;;;;;;;;10365845;28;20064;-65
2024/04/04 23:51:47;;;;;;;5.53;2.67;;;;;;;;;;10367757;28;20063;-67
2024/04/04 23:56:44;;;;;;;3.65;1.90;;;;;;;;;;10354241;28;20079;-65
